createdAt,value
2018-06-15T00:00:00.702Z,48.60
2018-06-15T00:02:35.649Z,44.47
2018-06-15T00:05:07.893Z,43.05
2018-06-15T00:07:41.010Z,44.53
2018-06-15T00:10:14.159Z,42.88
2018-06-15T00:12:47.625Z,47.75
2018-06-15T00:15:20.846Z,44.40
2018-06-15T00:17:53.370Z,52.22
2018-06-15T00:20:28.044Z,48.60
2018-06-15T00:22:59.631Z,50.33
2018-06-15T00:25:31.978Z,47.72
2018-06-15T00:28:03.777Z,49.92
2018-06-15T00:30:34.303Z,47.22
2018-06-15T00:33:07.887Z,46.03
2018-06-15T00:35:41.104Z,52.88
2018-06-15T00:38:12.719Z,46.88
2018-06-15T00:40:47.309Z,48.80
2018-06-15T00:43:22.196Z,50.97
2018-06-15T00:45:55.133Z,47.33
2018-06-15T00:48:28.450Z,49.92
2018-06-15T00:51:02.953Z,47.38
2018-06-15T00:53:34.394Z,49.55
2018-06-15T00:56:09.397Z,57.50
2018-06-15T00:58:42.588Z,62.28
2018-06-15T01:01:15.551Z,62.85
2018-06-15T01:03:48.768Z,61.28
2018-06-15T01:06:20.123Z,67.12
2018-06-15T01:08:51.636Z,62.53
2018-06-15T01:11:24.599Z,62.62
2018-06-15T01:13:55.146Z,55.28
2018-06-15T01:16:27.905Z,61.13
2018-06-15T01:19:01.010Z,65.00
2018-06-15T01:21:35.341Z,62.95
2018-06-15T01:24:08.768Z,64.37
2018-06-15T01:26:43.330Z,63.35
2018-06-15T01:29:15.256Z,70.60
2018-06-15T01:31:45.241Z,56.72
2018-06-15T01:34:18.715Z,62.53
2018-06-15T01:36:51.776Z,64.95
2018-06-15T01:39:25.477Z,59.05
2018-06-15T01:41:58.780Z,66.35
2018-06-15T01:44:31.836Z,62.60
2018-06-15T01:47:03.432Z,67.32
2018-06-15T01:49:34.933Z,67.37
2018-06-15T01:52:07.500Z,70.82
2018-06-15T01:54:39.859Z,61.55
2018-06-15T01:57:09.879Z,65.95
2018-06-15T01:59:42.983Z,71.97
2018-06-15T02:02:16.129Z,63.92
2018-06-15T02:04:46.284Z,69.97
2018-06-15T02:07:18.474Z,65.75
2018-06-15T02:09:49.983Z,57.13
2018-06-15T02:12:24.237Z,63.65
2018-06-15T02:14:58.626Z,96.50
2018-06-15T02:17:30.729Z,66.50
2018-06-15T02:20:02.343Z,65.40
2018-06-15T02:22:37.510Z,66.87
2018-06-15T02:25:12.124Z,68.50
2018-06-15T02:27:43.635Z,92.62
2018-06-15T02:30:18.271Z,78.78
2018-06-15T02:32:52.818Z,65.68
2018-06-15T02:35:26.057Z,68.20
2018-06-15T02:38:00.570Z,72.78
2018-06-15T02:40:33.539Z,75.43
2018-06-15T02:43:07.180Z,69.45
2018-06-15T02:45:41.637Z,73.55
2018-06-15T02:48:13.617Z,75.97
2018-06-15T02:50:45.063Z,75.70
2018-06-15T02:53:18.623Z,78.37
2018-06-15T02:55:53.104Z,79.15
2018-06-15T02:58:23.221Z,83.62
2018-06-15T03:00:52.692Z,92.82
2018-06-15T03:03:22.031Z,92.90
2018-06-15T03:05:55.439Z,99.20
2018-06-15T03:08:28.199Z,97.55
2018-06-15T03:10:58.661Z,100.00
2018-06-15T03:13:33.160Z,92.53
2018-06-15T03:16:06.164Z,93.05
2018-06-15T03:18:39.435Z,92.10
2018-06-15T03:21:12.586Z,98.60
2018-06-15T03:23:44.162Z,99.37
2018-06-15T03:26:17.286Z,88.30
2018-06-15T03:28:52.055Z,85.32
2018-06-15T03:31:25.155Z,93.90
2018-06-15T03:33:58.621Z,98.65
2018-06-15T03:36:33.658Z,99.85
2018-06-15T03:39:07.352Z,95.75
2018-06-15T03:41:36.722Z,101.82
2018-06-15T03:44:10.026Z,102.20
2018-06-15T03:46:44.945Z,82.53
2018-06-15T03:49:17.120Z,93.47
2018-06-15T03:51:48.628Z,94.55
2018-06-15T03:54:21.871Z,97.25
2018-06-15T03:56:55.041Z,86.20
2018-06-15T03:59:26.948Z,102.87
2018-06-15T04:01:57.637Z,95.05
2018-06-15T04:04:32.334Z,91.95
2018-06-15T04:07:03.884Z,87.53
2018-06-15T04:09:38.382Z,82.62
2018-06-15T04:12:08.271Z,89.37
2018-06-15T04:14:40.016Z,96.07
2018-06-15T04:17:12.959Z,101.53
2018-06-15T04:19:46.234Z,84.70
2018-06-15T04:22:16.937Z,87.45
2018-06-15T04:24:49.021Z,99.97
2018-06-15T04:27:22.214Z,91.20
2018-06-15T04:29:55.498Z,81.72
2018-06-15T04:32:28.707Z,81.82
2018-06-15T04:35:01.963Z,84.53
2018-06-15T04:37:34.025Z,80.82
2018-06-15T04:40:08.634Z,83.03
2018-06-15T04:42:43.423Z,89.47
2018-06-15T04:45:16.892Z,64.80
2018-06-15T04:47:50.014Z,70.95
2018-06-15T04:50:20.064Z,75.68
2018-06-15T04:52:51.503Z,70.62
2018-06-15T04:55:24.524Z,75.10
2018-06-15T04:57:58.150Z,68.12
2018-06-15T05:00:31.422Z,60.72
2018-06-15T05:03:06.034Z,70.87
2018-06-15T05:05:36.140Z,65.40
2018-06-15T05:08:09.331Z,57.40
2018-06-15T05:10:41.464Z,62.28
2018-06-15T05:13:15.831Z,61.45
2018-06-15T05:15:49.283Z,60.70
2018-06-15T05:18:20.989Z,54.35
2018-06-15T05:20:54.191Z,47.55
2018-06-15T05:23:24.196Z,50.10
2018-06-15T05:25:55.929Z,51.75
2018-06-15T05:28:28.839Z,49.63
2018-06-15T05:31:02.068Z,52.50
2018-06-15T05:33:33.787Z,52.35
2018-06-15T05:36:08.743Z,49.05
2018-06-15T05:38:41.816Z,51.30
2018-06-15T05:41:14.537Z,45.08
2018-06-15T05:43:44.514Z,43.30
2018-06-15T05:46:15.704Z,40.53
2018-06-15T05:48:48.824Z,46.75
2018-06-15T05:51:21.739Z,45.08
2018-06-15T05:53:56.336Z,52.25
2018-06-15T05:56:27.741Z,45.55
2018-06-15T05:58:59.233Z,46.83
2018-06-15T06:01:34.163Z,54.17
2018-06-15T06:04:07.306Z,53.53
2018-06-15T06:06:40.373Z,55.20
2018-06-15T06:09:11.577Z,51.50
2018-06-15T06:11:44.798Z,47.50
2018-06-15T06:14:16.832Z,51.05
2018-06-15T06:16:46.897Z,55.20
2018-06-15T06:19:18.401Z,49.72
2018-06-15T06:21:52.125Z,52.45
2018-06-15T06:24:25.059Z,46.72
2018-06-15T06:26:55.632Z,57.50
2018-06-15T06:29:28.726Z,50.92
2018-06-15T06:32:00.241Z,47.97
2018-06-15T06:34:33.820Z,50.60
2018-06-15T06:37:08.854Z,48.30
2018-06-15T06:39:42.175Z,48.50
2018-06-15T06:42:12.136Z,50.85
2018-06-15T06:44:44.968Z,42.75
2018-06-15T06:47:16.585Z,43.50
2018-06-15T06:49:50.964Z,41.00
2018-06-15T06:52:23.113Z,45.78
2018-06-15T06:54:56.190Z,43.33
2018-06-15T06:57:29.479Z,45.60
2018-06-15T07:00:02.535Z,35.05
2018-06-15T07:02:37.100Z,37.33
2018-06-15T07:05:08.618Z,38.50
2018-06-15T07:07:41.760Z,38.38
2018-06-15T07:10:14.523Z,33.40
2018-06-15T07:12:46.620Z,37.28
2018-06-15T07:15:18.118Z,38.15
2018-06-15T07:17:51.632Z,38.33
2018-06-15T07:20:21.513Z,38.28
2018-06-15T07:22:53.444Z,39.97
2018-06-15T07:25:23.354Z,43.67
2018-06-15T07:27:57.840Z,39.53
2018-06-15T07:30:40.256Z,39.97
2018-06-15T07:33:11.648Z,46.90
2018-06-15T07:35:44.828Z,42.38
2018-06-15T07:38:18.192Z,41.20
2018-06-15T07:40:51.276Z,37.55
2018-06-15T07:43:25.669Z,37.97
2018-06-15T07:46:00.155Z,35.38
2018-06-15T07:48:31.650Z,33.80
2018-06-15T07:51:03.559Z,37.05
2018-06-15T07:53:36.589Z,32.30
2018-06-15T07:56:08.077Z,31.10
2018-06-15T07:58:41.150Z,33.97
2018-06-15T08:01:16.060Z,31.37
2018-06-15T08:04:05.828Z,29.92
2018-06-15T08:06:38.749Z,33.55
2018-06-15T08:09:12.961Z,31.67
2018-06-15T08:11:46.059Z,29.67
2018-06-15T08:14:17.471Z,32.10
2018-06-15T08:16:51.841Z,34.83
2018-06-15T08:19:24.845Z,31.62
2018-06-15T08:21:54.781Z,32.60
2018-06-15T08:24:26.742Z,30.75
2018-06-15T08:27:06.995Z,39.13
2018-06-15T08:29:38.441Z,29.05
2018-06-15T08:32:08.468Z,34.72
2018-06-15T08:34:41.537Z,30.23
2018-06-15T08:37:14.669Z,33.03
2018-06-15T08:39:46.201Z,31.25
2018-06-15T08:42:19.185Z,32.33
2018-06-15T08:44:53.765Z,32.63
2018-06-15T08:47:24.578Z,34.88
2018-06-15T08:49:58.832Z,32.38
2018-06-15T08:52:32.462Z,30.40
2018-06-15T08:55:04.045Z,30.45
2018-06-15T08:57:33.943Z,29.77
2018-06-15T09:00:06.761Z,32.28
2018-06-15T09:02:39.685Z,32.40
2018-06-15T09:05:13.184Z,29.20
2018-06-15T09:07:45.276Z,30.10
2018-06-15T09:10:16.693Z,30.42
2018-06-15T09:12:49.649Z,32.42
2018-06-15T09:15:22.651Z,33.25
2018-06-15T09:17:54.023Z,27.67
2018-06-15T09:20:24.420Z,26.10
2018-06-15T09:22:59.252Z,31.90
2018-06-15T09:25:32.224Z,27.45
2018-06-15T09:28:03.713Z,31.92
2018-06-15T09:30:35.076Z,29.20
2018-06-15T09:33:07.962Z,31.40
2018-06-15T09:35:42.326Z,26.27
2018-06-15T09:38:16.587Z,31.40
2018-06-15T09:40:48.497Z,28.23
2018-06-15T09:43:21.638Z,28.55
2018-06-15T09:45:53.559Z,31.25
2018-06-15T09:48:23.510Z,29.20
2018-06-15T09:50:56.532Z,32.60
2018-06-15T09:53:28.115Z,28.50
2018-06-15T09:56:00.154Z,27.50
2018-06-15T09:58:31.677Z,29.55
2018-06-15T10:01:15.030Z,26.02
2018-06-15T10:03:48.193Z,30.30
2018-06-15T10:06:18.882Z,33.05
2018-06-15T10:08:50.743Z,27.50
2018-06-15T10:11:21.261Z,26.85
2018-06-15T10:13:52.604Z,23.85
2018-06-15T10:16:25.998Z,29.95
2018-06-15T10:18:58.043Z,25.62
2018-06-15T10:21:30.814Z,27.73
2018-06-15T10:24:00.817Z,24.70
2018-06-15T10:26:33.728Z,28.75
2018-06-15T10:29:08.268Z,27.50
2018-06-15T10:31:39.353Z,26.50
2018-06-15T10:34:10.743Z,23.83
2018-06-15T10:36:42.507Z,25.45
2018-06-15T10:39:16.590Z,24.77
2018-06-15T10:41:49.403Z,29.50
2018-06-15T10:44:22.570Z,28.98
2018-06-15T10:46:56.910Z,28.77
2018-06-15T10:49:26.837Z,30.00
2018-06-15T10:51:58.816Z,28.67
2018-06-15T10:54:32.247Z,31.37
2018-06-15T10:57:04.680Z,30.23
2018-06-15T10:59:37.595Z,28.40
2018-06-15T11:02:10.819Z,28.48
2018-06-15T11:04:40.631Z,27.08
2018-06-15T11:07:12.169Z,25.92
2018-06-15T11:09:43.572Z,27.80
2018-06-15T11:12:14.958Z,26.30
2018-06-15T11:14:46.533Z,23.05
2018-06-15T11:17:19.738Z,23.10
2018-06-15T11:19:52.879Z,22.58
2018-06-15T11:22:25.701Z,22.10
2018-06-15T11:24:57.086Z,23.95
2018-06-15T11:27:30.226Z,24.65
2018-06-15T11:30:03.942Z,21.35
2018-06-15T11:32:36.789Z,20.83
2018-06-15T11:35:08.533Z,24.75
2018-06-15T11:37:39.951Z,17.80
2018-06-15T11:40:12.409Z,21.60
2018-06-15T11:42:43.852Z,26.17
2018-06-15T11:45:18.073Z,21.25
2018-06-15T11:47:49.993Z,22.67
2018-06-15T11:50:25.082Z,20.95
2018-06-15T11:52:56.934Z,20.12
2018-06-15T11:55:30.029Z,15.35
2018-06-15T11:58:01.388Z,15.90
2018-06-15T12:00:31.884Z,17.55
2018-06-15T12:03:01.822Z,18.33
2018-06-15T12:05:31.633Z,17.12
2018-06-15T12:08:04.433Z,19.98
2018-06-15T12:10:35.853Z,17.02
2018-06-15T12:13:07.835Z,23.00
2018-06-15T12:15:40.788Z,20.98
2018-06-15T12:18:13.044Z,20.55
2018-06-15T12:20:44.410Z,23.87
2018-06-15T12:23:19.013Z,21.02
2018-06-15T12:25:50.462Z,20.17
2018-06-15T12:28:23.517Z,20.80
2018-06-15T12:30:55.247Z,20.90
2018-06-15T12:33:28.147Z,21.62
2018-06-15T12:36:01.264Z,22.65
2018-06-15T12:38:32.612Z,24.85
2018-06-15T12:41:05.402Z,23.65
2018-06-15T12:43:36.764Z,19.20
2018-06-15T12:46:09.631Z,21.70
2018-06-15T12:48:41.040Z,20.75
2018-06-15T12:51:15.470Z,23.15
2018-06-15T12:53:48.918Z,21.12
2018-06-15T12:56:20.409Z,16.75
2018-06-15T12:58:53.345Z,17.15
2018-06-15T13:01:26.555Z,16.67
2018-06-15T13:03:59.912Z,12.90
2018-06-15T13:06:31.325Z,19.37
2018-06-15T13:09:03.695Z,21.10
2018-06-15T13:11:39.134Z,18.33
2018-06-15T13:14:10.556Z,19.02
2018-06-15T13:16:41.901Z,19.15
2018-06-15T13:19:14.916Z,19.50
2018-06-15T13:21:48.087Z,26.75
2018-06-15T13:24:20.969Z,18.85
2018-06-15T13:26:53.847Z,18.50
2018-06-15T13:29:23.703Z,19.87
2018-06-15T13:31:56.853Z,18.80
2018-06-15T13:34:28.539Z,18.73
2018-06-15T13:36:58.661Z,20.55
2018-06-15T13:39:30.183Z,17.48
2018-06-15T13:42:00.219Z,19.67
2018-06-15T13:44:34.942Z,20.10
2018-06-15T13:47:06.725Z,24.37
2018-06-15T13:49:38.099Z,23.02
2018-06-15T13:52:11.036Z,23.45
2018-06-15T13:54:44.053Z,20.25
2018-06-15T13:57:13.944Z,21.20
2018-06-15T13:59:43.871Z,22.30
2018-06-15T14:02:17.113Z,19.40
2018-06-15T14:04:47.073Z,22.48
2018-06-15T14:07:18.483Z,16.55
2018-06-15T14:09:48.131Z,21.40
2018-06-15T14:12:22.742Z,16.15
2018-06-15T14:14:54.956Z,15.25
2018-06-15T14:17:26.337Z,19.42
2018-06-15T14:19:57.768Z,17.83
2018-06-15T14:22:31.057Z,18.58
2018-06-15T14:25:05.284Z,15.52
2018-06-15T14:27:36.676Z,18.12
2018-06-15T14:30:11.473Z,18.02
2018-06-15T14:32:42.935Z,15.77
2018-06-15T14:35:12.866Z,15.82
2018-06-15T14:37:45.684Z,17.23
2018-06-15T14:40:17.095Z,16.12
2018-06-15T14:42:48.414Z,17.90
2018-06-15T14:45:19.940Z,14.63
2018-06-15T14:47:51.380Z,17.75
2018-06-15T14:50:25.699Z,14.30
2018-06-15T14:52:57.157Z,17.62
2018-06-15T14:55:29.977Z,18.30
2018-06-15T14:58:02.901Z,15.90
2018-06-15T15:00:34.277Z,20.98
2018-06-15T15:03:06.823Z,18.85
2018-06-15T15:05:39.744Z,15.55
2018-06-15T15:08:10.223Z,17.67
2018-06-15T15:10:43.106Z,19.00
2018-06-15T15:13:16.402Z,14.57
2018-06-15T15:15:46.317Z,12.45
2018-06-15T15:18:16.180Z,11.75
2018-06-15T15:20:47.639Z,14.98
2018-06-15T15:23:19.032Z,12.23
2018-06-15T15:25:53.833Z,11.00
2018-06-15T15:28:25.161Z,11.27
2018-06-15T15:30:56.028Z,11.77
2018-06-15T15:33:30.448Z,11.65
2018-06-15T15:36:00.901Z,12.90
2018-06-15T15:38:34.132Z,12.40
2018-06-15T15:41:05.901Z,16.02
2018-06-15T15:43:38.804Z,12.37
2018-06-15T15:46:10.776Z,12.37
2018-06-15T15:48:43.721Z,11.18
2018-06-15T15:51:17.161Z,14.43
2018-06-15T15:53:47.002Z,14.35
2018-06-15T15:56:17.043Z,10.13
2018-06-15T15:58:50.280Z,13.70
2018-06-15T16:01:20.207Z,9.60
2018-06-15T16:03:51.688Z,11.10
2018-06-15T16:06:25.007Z,11.32
2018-06-15T16:08:54.981Z,9.35
2018-06-15T16:11:26.976Z,7.62
2018-06-15T16:13:59.004Z,8.77
2018-06-15T16:16:31.795Z,7.93
2018-06-15T16:19:03.329Z,9.80
2018-06-15T16:21:36.453Z,9.68
2018-06-15T16:24:06.358Z,11.30
2018-06-15T16:26:38.300Z,8.60
2018-06-15T16:29:11.145Z,10.80
2018-06-15T16:31:42.616Z,9.82
2018-06-15T16:34:15.453Z,11.32
2018-06-15T16:36:48.400Z,8.20
2018-06-15T16:39:19.848Z,8.25
2018-06-15T16:41:51.197Z,8.68
2018-06-15T16:44:23.980Z,8.10
2018-06-15T16:46:55.308Z,7.80
2018-06-15T16:49:26.725Z,10.75
2018-06-15T16:51:56.618Z,10.15
2018-06-15T16:54:26.540Z,10.30
2018-06-15T16:56:56.430Z,12.43
2018-06-15T16:59:29.278Z,9.02
2018-06-15T17:02:02.340Z,9.20
2018-06-15T17:04:35.214Z,11.32
2018-06-15T17:07:08.059Z,8.00
2018-06-15T17:09:37.900Z,11.38
2018-06-15T17:12:08.298Z,7.62
2018-06-15T17:14:42.534Z,11.57
2018-06-15T17:17:15.453Z,11.70
2018-06-15T17:19:48.297Z,12.85
2018-06-15T17:22:21.112Z,10.23
2018-06-15T17:24:54.198Z,12.52
2018-06-15T17:27:27.095Z,20.40
2018-06-15T17:29:58.604Z,14.50
2018-06-15T17:32:30.035Z,40.88
2018-06-15T17:35:03.079Z,15.05
2018-06-15T17:37:35.823Z,48.53
2018-06-15T17:40:07.490Z,19.77
2018-06-15T17:42:39.261Z,30.67
2018-06-15T17:45:12.312Z,29.87
2018-06-15T17:47:43.769Z,64.53
2018-06-15T17:50:15.322Z,22.83
2018-06-15T17:52:46.971Z,20.85
2018-06-15T17:55:17.514Z,23.42
2018-06-15T17:57:50.628Z,15.73
2018-06-15T18:00:22.440Z,12.57
2018-06-15T18:02:57.053Z,24.40
2018-06-15T18:05:28.016Z,17.00
2018-06-15T18:08:02.797Z,12.63
2018-06-15T18:10:35.874Z,15.88
2018-06-15T18:13:05.768Z,16.62
2018-06-15T18:15:37.320Z,12.85
2018-06-15T18:18:10.208Z,9.50
2018-06-15T18:20:44.671Z,14.48
2018-06-15T18:23:17.551Z,13.65
2018-06-15T18:25:51.911Z,8.90
2018-06-15T18:28:24.992Z,12.98
2018-06-15T18:30:58.646Z,18.45
2018-06-15T18:33:30.801Z,21.98
2018-06-15T18:36:03.765Z,23.98
2018-06-15T18:38:35.238Z,28.45
2018-06-15T18:41:10.035Z,29.23
2018-06-15T18:43:43.044Z,24.77
2018-06-15T18:46:16.074Z,29.33
2018-06-15T18:48:47.708Z,28.23
2018-06-15T18:51:20.650Z,28.70
2018-06-15T18:53:50.595Z,32.22
2018-06-15T18:56:23.653Z,30.12
2018-06-15T18:58:53.983Z,26.92
2018-06-15T19:01:25.541Z,30.40
2018-06-15T19:03:59.964Z,27.60
2018-06-15T19:06:34.297Z,25.53
2018-06-15T19:09:10.273Z,24.25
2018-06-15T19:11:42.402Z,27.25
2018-06-15T19:14:15.388Z,36.65
2018-06-15T19:16:47.595Z,26.92
2018-06-15T19:19:21.199Z,32.17
2018-06-15T19:21:54.483Z,26.95
2018-06-15T19:24:26.002Z,24.87
2018-06-15T19:26:57.701Z,26.75
2018-06-15T19:29:30.738Z,23.52
2018-06-15T19:32:02.229Z,29.25
2018-06-15T19:34:33.647Z,25.30
2018-06-15T19:37:05.094Z,26.25
2018-06-15T19:39:39.543Z,28.45
2018-06-15T19:42:11.692Z,27.95
2018-06-15T19:44:43.220Z,27.50
2018-06-15T19:47:16.310Z,35.38
2018-06-15T19:49:46.451Z,22.92
2018-06-15T19:52:18.607Z,23.62
2018-06-15T19:54:51.629Z,24.48
2018-06-15T19:57:23.342Z,27.35
2018-06-15T19:59:54.796Z,25.92
2018-06-15T20:02:26.693Z,25.75
2018-06-15T20:04:56.608Z,32.38
2018-06-15T20:07:28.076Z,23.55
2018-06-15T20:10:02.660Z,28.83
2018-06-15T20:12:34.275Z,26.73
2018-06-15T20:15:05.668Z,25.55
2018-06-15T20:17:39.111Z,28.77
2018-06-15T20:20:09.098Z,27.77
2018-06-15T20:22:42.700Z,26.67
2018-06-15T20:25:14.640Z,28.73
2018-06-15T20:27:49.179Z,23.20
2018-06-15T20:30:22.162Z,22.42
2018-06-15T20:32:55.233Z,29.45
2018-06-15T20:35:27.100Z,31.27
2018-06-15T20:37:58.670Z,25.30
2018-06-15T20:40:28.602Z,25.27
2018-06-15T20:42:58.674Z,31.25
2018-06-15T20:45:28.717Z,24.35
2018-06-15T20:48:03.302Z,24.63
2018-06-15T20:50:37.920Z,29.10
2018-06-15T20:53:07.919Z,28.65
2018-06-15T20:55:39.285Z,40.92
2018-06-15T20:58:12.376Z,26.12
2018-06-15T21:00:42.076Z,27.23
2018-06-15T21:03:13.485Z,24.98
2018-06-15T21:05:43.512Z,32.03
2018-06-15T21:08:16.472Z,28.95
2018-06-15T21:10:48.047Z,30.77
2018-06-15T21:13:21.022Z,31.45
2018-06-15T21:15:52.443Z,27.02
2018-06-15T21:18:25.395Z,25.77
2018-06-15T21:20:56.820Z,25.92
2018-06-15T21:23:31.585Z,30.52
2018-06-15T21:26:06.198Z,33.65
2018-06-15T21:28:41.110Z,28.80
2018-06-15T21:31:15.985Z,30.05
2018-06-15T21:33:47.553Z,29.63
2018-06-15T21:36:18.993Z,26.73
2018-06-15T21:38:50.497Z,28.70
2018-06-15T21:41:23.755Z,32.05
2018-06-15T21:43:56.877Z,28.53
2018-06-15T21:46:29.739Z,26.95
2018-06-15T21:49:04.151Z,31.08
2018-06-15T21:51:38.639Z,33.63
2018-06-15T21:54:10.242Z,26.05
2018-06-15T21:56:44.727Z,24.17
2018-06-15T21:59:17.748Z,27.87
2018-06-15T22:01:47.666Z,28.42
2018-06-15T22:04:21.155Z,27.67
2018-06-15T22:06:52.834Z,25.15
2018-06-15T22:09:24.397Z,26.00
2018-06-15T22:11:57.549Z,29.95
2018-06-15T22:14:31.469Z,26.85
2018-06-15T22:17:02.955Z,28.02
2018-06-15T22:19:36.069Z,28.87
2018-06-15T22:22:09.130Z,21.67
2018-06-15T22:24:43.493Z,27.55
2018-06-15T22:27:15.191Z,25.88
2018-06-15T22:29:46.643Z,26.83
2018-06-15T22:32:17.105Z,27.15
2018-06-15T22:34:50.485Z,25.65
2018-06-15T22:37:21.999Z,23.80
2018-06-15T22:39:55.070Z,28.83
2018-06-15T22:42:25.800Z,26.90
2018-06-15T22:45:00.234Z,23.48
2018-06-15T22:47:32.303Z,24.85
2018-06-15T22:50:05.255Z,26.85
2018-06-15T22:52:36.765Z,27.58
2018-06-15T22:55:08.391Z,27.10
2018-06-15T22:57:41.355Z,26.12
2018-06-15T23:00:11.715Z,27.42
2018-06-15T23:02:42.778Z,23.92
2018-06-15T23:05:14.415Z,29.40
2018-06-15T23:07:46.301Z,28.30
2018-06-15T23:10:17.827Z,29.65
2018-06-15T23:12:47.834Z,29.25
2018-06-15T23:15:21.646Z,32.95
2018-06-15T23:17:52.673Z,32.75
2018-06-15T23:20:23.678Z,32.70
2018-06-15T23:22:55.195Z,27.70
2018-06-15T23:25:28.557Z,30.37
2018-06-15T23:28:01.742Z,33.92
2018-06-15T23:30:33.330Z,30.62
2018-06-15T23:33:06.249Z,29.90
2018-06-15T23:35:38.683Z,29.65
2018-06-15T23:38:10.161Z,32.13
2018-06-15T23:40:43.112Z,24.35
2018-06-15T23:43:16.077Z,31.48
2018-06-15T23:45:48.143Z,30.62
2018-06-15T23:48:19.642Z,36.78
2018-06-15T23:50:52.569Z,29.50
2018-06-15T23:53:24.413Z,36.70
2018-06-15T23:55:58.772Z,30.08
2018-06-15T23:58:31.916Z,28.67
